Terminal Aerodrome Forecast
Issued by NWS

Home | Current Version | Previous Version | Text Only | Print | Product List | Glossary On
Versions: 1 2 3 4 5 6 7 8 9 10 11 12 13
000
FTUS45 KREV 041120
TAFMMH
TAF
KMMH 041120Z 0412/0512 30009KT P6SM SKC
     FM041700 20012G22KT P6SM FEW180
     FM042100 24019G30KT P6SM FEW180
     FM050200 26010G20KT P6SM SCT180
     FM050500 26009KT P6SM SCT180=

USA.gov is the U.S. government's official web portal to all federal, state and local government web resources and services.